sensor_id;sensor_type;location;lat;lon;timestamp;temperature;humidity
41080;DHT22;26826;50.718;7.114;2024-01-07T00:04:20;2.70;99.90
41080;DHT22;26826;50.718;7.114;2024-01-07T00:14:20;2.70;99.90
41080;DHT22;26826;50.718;7.114;2024-01-07T00:24:21;2.70;99.90
41080;DHT22;26826;50.718;7.114;2024-01-07T00:34:21;2.80;99.90
41080;DHT22;26826;50.718;7.114;2024-01-07T00:44:21;2.80;99.90
41080;DHT22;26826;50.718;7.114;2024-01-07T00:54:22;2.80;99.90
41080;DHT22;26826;50.718;7.114;2024-01-07T01:04:22;2.80;99.90
41080;DHT22;26826;50.718;7.114;2024-01-07T01:14:23;2.80;99.90
41080;DHT22;26826;50.718;7.114;2024-01-07T01:24:23;2.80;99.90
41080;DHT22;26826;50.718;7.114;2024-01-07T01:34:24;2.90;99.90
41080;DHT22;26826;50.718;7.114;2024-01-07T01:44:24;2.80;99.90
41080;DHT22;26826;50.718;7.114;2024-01-07T01:54:27;2.80;99.90
41080;DHT22;26826;50.718;7.114;2024-01-07T02:04:28;2.90;99.90
41080;DHT22;26826;50.718;7.114;2024-01-07T02:14:28;2.90;99.90
41080;DHT22;26826;50.718;7.114;2024-01-07T02:24:29;2.90;99.90
41080;DHT22;26826;50.718;7.114;2024-01-07T02:34:30;2.90;99.90
41080;DHT22;26826;50.718;7.114;2024-01-07T02:44:31;2.90;99.90
41080;DHT22;26826;50.718;7.114;2024-01-07T02:54:31;2.90;99.90
41080;DHT22;26826;50.718;7.114;2024-01-07T03:04:32;2.80;99.90
41080;DHT22;26826;50.718;7.114;2024-01-07T03:14:33;2.90;99.90
41080;DHT22;26826;50.718;7.114;2024-01-07T03:24:33;2.90;99.90
41080;DHT22;26826;50.718;7.114;2024-01-07T03:34:33;2.90;99.90
41080;DHT22;26826;50.718;7.114;2024-01-07T04:05:37;2.90;99.90
41080;DHT22;26826;50.718;7.114;2024-01-07T04:15:38;2.90;99.90
41080;DHT22;26826;50.718;7.114;2024-01-07T04:25:38;2.80;99.90
41080;DHT22;26826;50.718;7.114;2024-01-07T04:35:41;2.80;99.90
41080;DHT22;26826;50.718;7.114;2024-01-07T04:45:41;2.80;99.90
41080;DHT22;26826;50.718;7.114;2024-01-07T04:55:41;2.80;99.90
41080;DHT22;26826;50.718;7.114;2024-01-07T05:05:42;2.70;99.90
41080;DHT22;26826;50.718;7.114;2024-01-07T05:15:42;2.70;99.90
41080;DHT22;26826;50.718;7.114;2024-01-07T05:25:43;2.60;99.90
41080;DHT22;26826;50.718;7.114;2024-01-07T05:35:43;2.60;99.90
41080;DHT22;26826;50.718;7.114;2024-01-07T05:45:44;2.50;99.90
41080;DHT22;26826;50.718;7.114;2024-01-07T05:55:44;2.50;99.90
41080;DHT22;26826;50.718;7.114;2024-01-07T06:05:45;2.40;99.90
41080;DHT22;26826;50.718;7.114;2024-01-07T06:15:45;2.30;99.90
41080;DHT22;26826;50.718;7.114;2024-01-07T06:25:46;2.10;99.90
41080;DHT22;26826;50.718;7.114;2024-01-07T06:35:46;2.20;99.90
41080;DHT22;26826;50.718;7.114;2024-01-07T06:45:46;2.20;99.90
41080;DHT22;26826;50.718;7.114;2024-01-07T06:55:47;2.20;99.90
41080;DHT22;26826;50.718;7.114;2024-01-07T07:05:47;2.10;99.90
41080;DHT22;26826;50.718;7.114;2024-01-07T07:15:48;2.20;99.90
41080;DHT22;26826;50.718;7.114;2024-01-07T07:25:48;2.10;99.90
41080;DHT22;26826;50.718;7.114;2024-01-07T07:35:49;2.10;99.90
41080;DHT22;26826;50.718;7.114;2024-01-07T07:45:49;2.10;99.90
41080;DHT22;26826;50.718;7.114;2024-01-07T07:55:50;2.10;99.90
41080;DHT22;26826;50.718;7.114;2024-01-07T08:05:50;2.20;99.90
41080;DHT22;26826;50.718;7.114;2024-01-07T08:15:51;2.20;99.90
41080;DHT22;26826;50.718;7.114;2024-01-07T08:25:51;2.20;99.90
41080;DHT22;26826;50.718;7.114;2024-01-07T08:35:52;2.20;99.90
41080;DHT22;26826;50.718;7.114;2024-01-07T08:45:52;2.20;99.90
41080;DHT22;26826;50.718;7.114;2024-01-07T08:55:53;2.20;99.90
41080;DHT22;26826;50.718;7.114;2024-01-07T09:05:53;2.20;99.90
41080;DHT22;26826;50.718;7.114;2024-01-07T09:15:54;2.20;99.90
41080;DHT22;26826;50.718;7.114;2024-01-07T09:25:54;2.20;99.90
41080;DHT22;26826;50.718;7.114;2024-01-07T09:35:54;2.30;99.90
41080;DHT22;26826;50.718;7.114;2024-01-07T09:45:55;2.20;99.90
41080;DHT22;26826;50.718;7.114;2024-01-07T10:06:19;2.30;99.90
41080;DHT22;26826;50.718;7.114;2024-01-07T10:16:20;2.30;99.90
41080;DHT22;26826;50.718;7.114;2024-01-07T10:26:21;2.30;99.90
41080;DHT22;26826;50.718;7.114;2024-01-07T10:36:21;2.30;99.90
41080;DHT22;26826;50.718;7.114;2024-01-07T10:46:22;2.40;99.90
41080;DHT22;26826;50.718;7.114;2024-01-07T10:56:23;2.30;99.90
41080;DHT22;26826;50.718;7.114;2024-01-07T11:06:29;2.30;99.90
41080;DHT22;26826;50.718;7.114;2024-01-07T11:16:41;2.30;99.90
41080;DHT22;26826;50.718;7.114;2024-01-07T11:26:42;2.20;99.90
41080;DHT22;26826;50.718;7.114;2024-01-07T11:36:42;2.30;99.90
41080;DHT22;26826;50.718;7.114;2024-01-07T11:46:43;2.30;99.90
41080;DHT22;26826;50.718;7.114;2024-01-07T11:56:43;2.40;99.90
41080;DHT22;26826;50.718;7.114;2024-01-07T12:06:44;2.50;99.90
41080;DHT22;26826;50.718;7.114;2024-01-07T12:16:45;2.60;99.90
41080;DHT22;26826;50.718;7.114;2024-01-07T12:26:46;2.50;99.90
41080;DHT22;26826;50.718;7.114;2024-01-07T12:36:48;2.50;99.90
41080;DHT22;26826;50.718;7.114;2024-01-07T12:46:49;2.40;99.90
41080;DHT22;26826;50.718;7.114;2024-01-07T12:56:52;2.40;99.90
41080;DHT22;26826;50.718;7.114;2024-01-07T13:06:52;2.30;99.90
41080;DHT22;26826;50.718;7.114;2024-01-07T13:16:52;2.30;99.90
41080;DHT22;26826;50.718;7.114;2024-01-07T13:26:53;2.30;99.90
41080;DHT22;26826;50.718;7.114;2024-01-07T13:36:53;2.60;99.90
41080;DHT22;26826;50.718;7.114;2024-01-07T13:46:54;2.30;99.90
41080;DHT22;26826;50.718;7.114;2024-01-07T13:56:55;2.00;99.90
41080;DHT22;26826;50.718;7.114;2024-01-07T14:06:56;1.90;99.90
41080;DHT22;26826;50.718;7.114;2024-01-07T14:16:56;1.80;99.90
41080;DHT22;26826;50.718;7.114;2024-01-07T14:26:57;1.50;99.90
41080;DHT22;26826;50.718;7.114;2024-01-07T14:36:57;1.50;99.90
41080;DHT22;26826;50.718;7.114;2024-01-07T14:46:58;1.50;99.90
41080;DHT22;26826;50.718;7.114;2024-01-07T14:56:59;1.40;99.90
41080;DHT22;26826;50.718;7.114;2024-01-07T15:06:59;1.30;99.90
41080;DHT22;26826;50.718;7.114;2024-01-07T15:17:00;1.00;99.90
41080;DHT22;26826;50.718;7.114;2024-01-07T15:27:00;0.90;99.90
41080;DHT22;26826;50.718;7.114;2024-01-07T15:37:00;0.80;99.90
41080;DHT22;26826;50.718;7.114;2024-01-07T15:57:42;0.60;99.90
41080;DHT22;26826;50.718;7.114;2024-01-07T16:07:46;0.40;99.90
41080;DHT22;26826;50.718;7.114;2024-01-07T16:17:47;0.30;99.90
41080;DHT22;26826;50.718;7.114;2024-01-07T16:27:47;0.30;99.90
41080;DHT22;26826;50.718;7.114;2024-01-07T16:37:48;0.20;99.90
41080;DHT22;26826;50.718;7.114;2024-01-07T16:47:50;0.20;99.90
41080;DHT22;26826;50.718;7.114;2024-01-07T16:57:51;0.00;99.90
41080;DHT22;26826;50.718;7.114;2024-01-07T17:07:52;0.00;99.90
41080;DHT22;26826;50.718;7.114;2024-01-07T17:17:52;-0.10;99.90
41080;DHT22;26826;50.718;7.114;2024-01-07T17:27:53;-0.20;99.90
41080;DHT22;26826;50.718;7.114;2024-01-07T17:37:53;-0.10;99.90
41080;DHT22;26826;50.718;7.114;2024-01-07T17:47:54;-0.10;99.90
41080;DHT22;26826;50.718;7.114;2024-01-07T17:57:54;-0.10;99.90
41080;DHT22;26826;50.718;7.114;2024-01-07T18:07:55;-0.10;99.90
41080;DHT22;26826;50.718;7.114;2024-01-07T18:17:55;0.00;99.90
41080;DHT22;26826;50.718;7.114;2024-01-07T18:27:55;0.00;99.90
41080;DHT22;26826;50.718;7.114;2024-01-07T18:37:56;0.00;99.90
41080;DHT22;26826;50.718;7.114;2024-01-07T18:47:56;0.00;99.90
41080;DHT22;26826;50.718;7.114;2024-01-07T18:57:57;0.10;99.90
41080;DHT22;26826;50.718;7.114;2024-01-07T19:07:57;0.10;99.90
41080;DHT22;26826;50.718;7.114;2024-01-07T19:17:58;0.10;99.90
41080;DHT22;26826;50.718;7.114;2024-01-07T19:27:59;0.10;99.90
41080;DHT22;26826;50.718;7.114;2024-01-07T19:38:00;0.20;99.90
41080;DHT22;26826;50.718;7.114;2024-01-07T19:48:00;0.20;99.90
41080;DHT22;26826;50.718;7.114;2024-01-07T19:58:04;0.30;99.90
41080;DHT22;26826;50.718;7.114;2024-01-07T20:08:05;0.20;99.90
41080;DHT22;26826;50.718;7.114;2024-01-07T20:18:06;0.20;99.90
41080;DHT22;26826;50.718;7.114;2024-01-07T20:28:06;0.30;99.90
41080;DHT22;26826;50.718;7.114;2024-01-07T20:38:07;0.30;99.90
41080;DHT22;26826;50.718;7.114;2024-01-07T20:48:09;0.30;99.90
41080;DHT22;26826;50.718;7.114;2024-01-07T20:58:09;0.20;99.90
41080;DHT22;26826;50.718;7.114;2024-01-07T21:08:10;0.10;99.90
41080;DHT22;26826;50.718;7.114;2024-01-07T21:18:10;0.10;99.90
41080;DHT22;26826;50.718;7.114;2024-01-07T21:28:14;0.10;99.90
41080;DHT22;26826;50.718;7.114;2024-01-07T21:38:15;0.00;99.90
41080;DHT22;26826;50.718;7.114;2024-01-07T22:08:57;0.20;99.90
41080;DHT22;26826;50.718;7.114;2024-01-07T22:18:57;0.20;99.90
41080;DHT22;26826;50.718;7.114;2024-01-07T22:28:58;0.00;99.90
41080;DHT22;26826;50.718;7.114;2024-01-07T22:38:59;0.00;99.90
41080;DHT22;26826;50.718;7.114;2024-01-07T22:48:59;-0.10;99.90
41080;DHT22;26826;50.718;7.114;2024-01-07T22:59:00;-0.10;99.90
41080;DHT22;26826;50.718;7.114;2024-01-07T23:09:00;-0.10;99.90
41080;DHT22;26826;50.718;7.114;2024-01-07T23:19:01;-0.10;99.90
41080;DHT22;26826;50.718;7.114;2024-01-07T23:29:02;-0.20;99.90
41080;DHT22;26826;50.718;7.114;2024-01-07T23:39:02;-0.20;99.90
41080;DHT22;26826;50.718;7.114;2024-01-07T23:49:04;-0.30;99.90
41080;DHT22;26826;50.718;7.114;2024-01-07T23:59:05;-0.30;99.90
